sensor_id;sensor_type;location;lat;lon;timestamp;temperature;humidity
8214;DHT22;4148;47.974;7.824;2023-07-13T00:00:01;21.00;99.90
8214;DHT22;4148;47.974;7.824;2023-07-13T00:02:31;21.00;99.90
8214;DHT22;4148;47.974;7.824;2023-07-13T00:04:59;21.00;99.90
8214;DHT22;4148;47.974;7.824;2023-07-13T00:07:28;21.00;99.90
8214;DHT22;4148;47.974;7.824;2023-07-13T00:09:58;21.00;99.90
8214;DHT22;4148;47.974;7.824;2023-07-13T00:12:28;21.10;99.90
8214;DHT22;4148;47.974;7.824;2023-07-13T00:14:57;21.00;99.90
8214;DHT22;4148;47.974;7.824;2023-07-13T00:17:27;21.00;99.90
8214;DHT22;4148;47.974;7.824;2023-07-13T00:19:55;21.00;99.90
8214;DHT22;4148;47.974;7.824;2023-07-13T00:22:23;21.00;99.90
8214;DHT22;4148;47.974;7.824;2023-07-13T00:24:55;21.00;99.90
8214;DHT22;4148;47.974;7.824;2023-07-13T00:27:23;21.00;99.90
8214;DHT22;4148;47.974;7.824;2023-07-13T00:29:53;21.00;99.90
8214;DHT22;4148;47.974;7.824;2023-07-13T00:32:21;21.00;99.90
8214;DHT22;4148;47.974;7.824;2023-07-13T00:34:49;21.00;99.90
8214;DHT22;4148;47.974;7.824;2023-07-13T00:37:16;21.00;99.90
8214;DHT22;4148;47.974;7.824;2023-07-13T00:39:44;20.90;99.90
8214;DHT22;4148;47.974;7.824;2023-07-13T00:42:14;20.80;99.90
8214;DHT22;4148;47.974;7.824;2023-07-13T00:47:24;20.80;99.90
8214;DHT22;4148;47.974;7.824;2023-07-13T00:49:52;20.90;99.90
8214;DHT22;4148;47.974;7.824;2023-07-13T00:52:20;21.00;99.90
8214;DHT22;4148;47.974;7.824;2023-07-13T00:54:48;20.90;99.90
8214;DHT22;4148;47.974;7.824;2023-07-13T00:57:20;20.80;99.90
8214;DHT22;4148;47.974;7.824;2023-07-13T00:59:52;20.70;99.90
8214;DHT22;4148;47.974;7.824;2023-07-13T01:02:21;20.70;99.90
8214;DHT22;4148;47.974;7.824;2023-07-13T01:04:50;20.70;99.90
8214;DHT22;4148;47.974;7.824;2023-07-13T01:07:18;20.80;99.90
8214;DHT22;4148;47.974;7.824;2023-07-13T01:09:46;20.80;99.90
8214;DHT22;4148;47.974;7.824;2023-07-13T01:12:14;20.70;99.90
8214;DHT22;4148;47.974;7.824;2023-07-13T01:14:43;20.70;99.90
8214;DHT22;4148;47.974;7.824;2023-07-13T01:17:11;20.60;99.90
8214;DHT22;4148;47.974;7.824;2023-07-13T01:19:42;20.50;99.90
8214;DHT22;4148;47.974;7.824;2023-07-13T01:22:14;20.40;99.90
8214;DHT22;4148;47.974;7.824;2023-07-13T01:24:44;20.30;99.90
8214;DHT22;4148;47.974;7.824;2023-07-13T01:27:14;20.20;99.90
8214;DHT22;4148;47.974;7.824;2023-07-13T01:29:43;20.20;99.90
8214;DHT22;4148;47.974;7.824;2023-07-13T01:32:15;20.20;99.90
8214;DHT22;4148;47.974;7.824;2023-07-13T01:34:44;20.20;99.90
8214;DHT22;4148;47.974;7.824;2023-07-13T01:37:14;20.10;99.90
8214;DHT22;4148;47.974;7.824;2023-07-13T01:39:42;20.00;99.90
8214;DHT22;4148;47.974;7.824;2023-07-13T01:42:10;20.00;99.90
8214;DHT22;4148;47.974;7.824;2023-07-13T01:44:38;20.00;99.90
8214;DHT22;4148;47.974;7.824;2023-07-13T01:47:06;20.00;99.90
8214;DHT22;4148;47.974;7.824;2023-07-13T01:49:34;19.90;99.90
8214;DHT22;4148;47.974;7.824;2023-07-13T01:52:02;19.80;99.90
8214;DHT22;4148;47.974;7.824;2023-07-13T01:54:32;19.80;99.90
8214;DHT22;4148;47.974;7.824;2023-07-13T01:57:00;19.80;99.90
8214;DHT22;4148;47.974;7.824;2023-07-13T01:59:29;19.80;99.90
8214;DHT22;4148;47.974;7.824;2023-07-13T02:01:59;19.70;99.90
8214;DHT22;4148;47.974;7.824;2023-07-13T02:04:27;19.60;99.90
8214;DHT22;4148;47.974;7.824;2023-07-13T02:06:55;19.60;99.90
8214;DHT22;4148;47.974;7.824;2023-07-13T02:09:23;19.50;99.90
8214;DHT22;4148;47.974;7.824;2023-07-13T02:11:52;19.50;99.90
8214;DHT22;4148;47.974;7.824;2023-07-13T02:14:20;19.40;99.90
8214;DHT22;4148;47.974;7.824;2023-07-13T02:16:48;19.40;99.90
8214;DHT22;4148;47.974;7.824;2023-07-13T02:19:16;19.30;99.90
8214;DHT22;4148;47.974;7.824;2023-07-13T02:21:44;19.20;99.90
8214;DHT22;4148;47.974;7.824;2023-07-13T02:24:12;19.10;99.90
8214;DHT22;4148;47.974;7.824;2023-07-13T02:26:44;19.10;99.90
8214;DHT22;4148;47.974;7.824;2023-07-13T02:29:13;19.00;99.90
8214;DHT22;4148;47.974;7.824;2023-07-13T02:31:41;18.90;99.90
8214;DHT22;4148;47.974;7.824;2023-07-13T02:34:10;18.90;99.90
8214;DHT22;4148;47.974;7.824;2023-07-13T02:36:38;18.90;99.90
8214;DHT22;4148;47.974;7.824;2023-07-13T02:39:06;18.90;99.90
8214;DHT22;4148;47.974;7.824;2023-07-13T02:41:34;18.90;99.90
8214;DHT22;4148;47.974;7.824;2023-07-13T02:44:03;18.90;99.90
8214;DHT22;4148;47.974;7.824;2023-07-13T02:46:33;18.80;99.90
8214;DHT22;4148;47.974;7.824;2023-07-13T02:49:02;18.80;99.90
8214;DHT22;4148;47.974;7.824;2023-07-13T02:51:30;18.80;99.90
8214;DHT22;4148;47.974;7.824;2023-07-13T02:54:00;18.80;99.90
8214;DHT22;4148;47.974;7.824;2023-07-13T02:56:29;18.90;99.90
8214;DHT22;4148;47.974;7.824;2023-07-13T02:58:58;18.90;99.90
8214;DHT22;4148;47.974;7.824;2023-07-13T03:01:25;18.90;99.90
8214;DHT22;4148;47.974;7.824;2023-07-13T03:03:55;18.80;99.90
8214;DHT22;4148;47.974;7.824;2023-07-13T03:06:23;18.80;99.90
8214;DHT22;4148;47.974;7.824;2023-07-13T03:08:51;18.80;99.90
8214;DHT22;4148;47.974;7.824;2023-07-13T03:11:20;18.70;99.90
8214;DHT22;4148;47.974;7.824;2023-07-13T03:13:48;18.50;99.90
8214;DHT22;4148;47.974;7.824;2023-07-13T03:16:16;18.50;99.90
8214;DHT22;4148;47.974;7.824;2023-07-13T03:18:46;18.30;99.90
8214;DHT22;4148;47.974;7.824;2023-07-13T03:21:16;18.40;99.90
8214;DHT22;4148;47.974;7.824;2023-07-13T03:23:44;18.40;99.90
8214;DHT22;4148;47.974;7.824;2023-07-13T03:26:14;18.40;99.90
8214;DHT22;4148;47.974;7.824;2023-07-13T03:28:43;18.40;99.90
8214;DHT22;4148;47.974;7.824;2023-07-13T03:31:14;18.50;99.90
8214;DHT22;4148;47.974;7.824;2023-07-13T03:33:43;18.50;99.90
8214;DHT22;4148;47.974;7.824;2023-07-13T03:36:15;18.50;99.90
8214;DHT22;4148;47.974;7.824;2023-07-13T03:38:46;18.50;99.90
8214;DHT22;4148;47.974;7.824;2023-07-13T03:41:14;18.50;99.90
8214;DHT22;4148;47.974;7.824;2023-07-13T03:43:43;18.50;99.90
8214;DHT22;4148;47.974;7.824;2023-07-13T03:46:11;18.40;99.90
8214;DHT22;4148;47.974;7.824;2023-07-13T03:48:40;18.20;99.90
8214;DHT22;4148;47.974;7.824;2023-07-13T03:51:10;18.20;99.90
8214;DHT22;4148;47.974;7.824;2023-07-13T03:53:42;18.20;99.90
8214;DHT22;4148;47.974;7.824;2023-07-13T03:56:11;18.10;99.90
8214;DHT22;4148;47.974;7.824;2023-07-13T03:58:42;18.00;99.90
8214;DHT22;4148;47.974;7.824;2023-07-13T04:01:11;17.90;99.90
8214;DHT22;4148;47.974;7.824;2023-07-13T04:03:40;17.80;99.90
8214;DHT22;4148;47.974;7.824;2023-07-13T04:06:18;17.80;99.90
8214;DHT22;4148;47.974;7.824;2023-07-13T04:08:51;17.90;99.90
8214;DHT22;4148;47.974;7.824;2023-07-13T04:11:20;18.00;99.90
8214;DHT22;4148;47.974;7.824;2023-07-13T04:13:49;18.10;99.90
8214;DHT22;4148;47.974;7.824;2023-07-13T04:16:18;18.10;99.90
8214;DHT22;4148;47.974;7.824;2023-07-13T04:18:46;18.10;99.90
8214;DHT22;4148;47.974;7.824;2023-07-13T04:21:15;18.20;99.90
8214;DHT22;4148;47.974;7.824;2023-07-13T04:23:44;18.10;99.90
8214;DHT22;4148;47.974;7.824;2023-07-13T04:26:13;18.10;99.90
8214;DHT22;4148;47.974;7.824;2023-07-13T04:28:41;18.20;99.90
8214;DHT22;4148;47.974;7.824;2023-07-13T04:31:09;18.30;99.90
8214;DHT22;4148;47.974;7.824;2023-07-13T04:33:37;18.30;99.90
8214;DHT22;4148;47.974;7.824;2023-07-13T04:36:05;18.40;99.90
8214;DHT22;4148;47.974;7.824;2023-07-13T04:38:36;18.30;99.90
8214;DHT22;4148;47.974;7.824;2023-07-13T04:41:06;18.20;99.90
8214;DHT22;4148;47.974;7.824;2023-07-13T04:43:36;18.10;99.90
8214;DHT22;4148;47.974;7.824;2023-07-13T04:46:05;18.10;99.90
8214;DHT22;4148;47.974;7.824;2023-07-13T04:48:33;18.20;99.90
8214;DHT22;4148;47.974;7.824;2023-07-13T04:51:02;18.20;99.90
8214;DHT22;4148;47.974;7.824;2023-07-13T04:53:30;18.20;99.90
8214;DHT22;4148;47.974;7.824;2023-07-13T04:55:58;18.30;99.90
8214;DHT22;4148;47.974;7.824;2023-07-13T04:58:28;18.30;99.90
8214;DHT22;4148;47.974;7.824;2023-07-13T05:01:01;18.30;99.90
8214;DHT22;4148;47.974;7.824;2023-07-13T05:03:29;18.40;99.90
8214;DHT22;4148;47.974;7.824;2023-07-13T05:05:59;18.40;99.90
8214;DHT22;4148;47.974;7.824;2023-07-13T05:08:27;18.40;99.90
8214;DHT22;4148;47.974;7.824;2023-07-13T05:10:55;18.50;99.90
8214;DHT22;4148;47.974;7.824;2023-07-13T05:13:23;18.50;99.90
8214;DHT22;4148;47.974;7.824;2023-07-13T05:15:56;18.50;99.90
8214;DHT22;4148;47.974;7.824;2023-07-13T05:18:27;18.50;99.90
8214;DHT22;4148;47.974;7.824;2023-07-13T05:20:59;18.50;99.90
8214;DHT22;4148;47.974;7.824;2023-07-13T05:23:28;18.50;99.90
8214;DHT22;4148;47.974;7.824;2023-07-13T05:25:56;18.60;99.90
8214;DHT22;4148;47.974;7.824;2023-07-13T05:28:24;18.70;99.90
8214;DHT22;4148;47.974;7.824;2023-07-13T05:30:53;18.90;99.90
8214;DHT22;4148;47.974;7.824;2023-07-13T05:33:22;19.00;99.90
8214;DHT22;4148;47.974;7.824;2023-07-13T05:35:52;19.00;99.90
8214;DHT22;4148;47.974;7.824;2023-07-13T05:38:19;19.10;99.90
8214;DHT22;4148;47.974;7.824;2023-07-13T05:40:48;19.20;99.90
8214;DHT22;4148;47.974;7.824;2023-07-13T05:43:15;19.20;99.90
8214;DHT22;4148;47.974;7.824;2023-07-13T05:45:43;19.40;99.90
8214;DHT22;4148;47.974;7.824;2023-07-13T05:48:11;19.50;99.90
8214;DHT22;4148;47.974;7.824;2023-07-13T05:50:39;19.60;99.90
8214;DHT22;4148;47.974;7.824;2023-07-13T05:53:09;19.60;99.90
8214;DHT22;4148;47.974;7.824;2023-07-13T05:55:41;19.60;99.90
8214;DHT22;4148;47.974;7.824;2023-07-13T05:58:10;19.70;99.90
8214;DHT22;4148;47.974;7.824;2023-07-13T06:00:38;19.80;99.90
8214;DHT22;4148;47.974;7.824;2023-07-13T06:03:06;19.80;99.90
8214;DHT22;4148;47.974;7.824;2023-07-13T06:05:35;19.80;99.90
8214;DHT22;4148;47.974;7.824;2023-07-13T06:08:05;19.90;99.90
8214;DHT22;4148;47.974;7.824;2023-07-13T06:10:35;19.90;99.90
8214;DHT22;4148;47.974;7.824;2023-07-13T06:13:03;19.90;99.90
8214;DHT22;4148;47.974;7.824;2023-07-13T06:15:31;19.90;99.90
8214;DHT22;4148;47.974;7.824;2023-07-13T06:17:59;19.90;99.90
8214;DHT22;4148;47.974;7.824;2023-07-13T06:20:29;19.90;99.90
8214;DHT22;4148;47.974;7.824;2023-07-13T06:22:57;19.90;99.90
8214;DHT22;4148;47.974;7.824;2023-07-13T06:25:26;20.00;99.90
8214;DHT22;4148;47.974;7.824;2023-07-13T06:27:56;20.10;99.90
8214;DHT22;4148;47.974;7.824;2023-07-13T06:30:24;20.20;99.90
8214;DHT22;4148;47.974;7.824;2023-07-13T06:32:52;20.30;99.90
8214;DHT22;4148;47.974;7.824;2023-07-13T06:35:20;20.40;99.90
8214;DHT22;4148;47.974;7.824;2023-07-13T06:37:48;20.50;99.90
8214;DHT22;4148;47.974;7.824;2023-07-13T06:40:16;20.60;99.90
8214;DHT22;4148;47.974;7.824;2023-07-13T06:42:44;20.70;99.90
8214;DHT22;4148;47.974;7.824;2023-07-13T06:45:13;20.90;99.90
8214;DHT22;4148;47.974;7.824;2023-07-13T06:47:41;21.10;99.90
8214;DHT22;4148;47.974;7.824;2023-07-13T06:50:09;21.50;99.90
8214;DHT22;4148;47.974;7.824;2023-07-13T06:52:38;21.70;99.90
8214;DHT22;4148;47.974;7.824;2023-07-13T06:55:06;21.90;99.90
8214;DHT22;4148;47.974;7.824;2023-07-13T06:57:34;22.10;99.90
8214;DHT22;4148;47.974;7.824;2023-07-13T07:00:02;22.20;99.90
8214;DHT22;4148;47.974;7.824;2023-07-13T07:02:34;22.20;99.90
8214;DHT22;4148;47.974;7.824;2023-07-13T07:05:03;22.30;99.90
8214;DHT22;4148;47.974;7.824;2023-07-13T07:07:31;22.30;99.90
8214;DHT22;4148;47.974;7.824;2023-07-13T07:09:59;22.50;99.90
8214;DHT22;4148;47.974;7.824;2023-07-13T07:12:27;22.50;99.90
8214;DHT22;4148;47.974;7.824;2023-07-13T07:14:55;22.70;99.90
8214;DHT22;4148;47.974;7.824;2023-07-13T07:17:23;22.80;99.90
8214;DHT22;4148;47.974;7.824;2023-07-13T07:19:53;23.00;99.90
8214;DHT22;4148;47.974;7.824;2023-07-13T07:22:21;23.10;99.90
8214;DHT22;4148;47.974;7.824;2023-07-13T07:24:49;23.20;99.90
8214;DHT22;4148;47.974;7.824;2023-07-13T07:27:17;23.10;99.90
8214;DHT22;4148;47.974;7.824;2023-07-13T07:29:48;23.10;99.90
8214;DHT22;4148;47.974;7.824;2023-07-13T07:32:36;23.10;99.90
8214;DHT22;4148;47.974;7.824;2023-07-13T07:35:08;23.30;99.90
8214;DHT22;4148;47.974;7.824;2023-07-13T07:37:36;23.20;99.90
8214;DHT22;4148;47.974;7.824;2023-07-13T07:40:08;23.30;99.90
8214;DHT22;4148;47.974;7.824;2023-07-13T07:42:38;23.40;99.90
8214;DHT22;4148;47.974;7.824;2023-07-13T07:45:07;23.50;99.90
8214;DHT22;4148;47.974;7.824;2023-07-13T07:47:35;23.60;99.90
8214;DHT22;4148;47.974;7.824;2023-07-13T07:50:03;23.60;99.90
8214;DHT22;4148;47.974;7.824;2023-07-13T07:52:32;23.70;99.90
8214;DHT22;4148;47.974;7.824;2023-07-13T07:55:00;23.80;99.90
8214;DHT22;4148;47.974;7.824;2023-07-13T07:57:31;23.90;99.90
8214;DHT22;4148;47.974;7.824;2023-07-13T08:00:19;24.00;99.90
8214;DHT22;4148;47.974;7.824;2023-07-13T08:02:50;24.10;99.90
8214;DHT22;4148;47.974;7.824;2023-07-13T08:05:21;24.30;99.90
8214;DHT22;4148;47.974;7.824;2023-07-13T08:08:06;24.40;99.90
8214;DHT22;4148;47.974;7.824;2023-07-13T08:10:35;24.40;99.90
8214;DHT22;4148;47.974;7.824;2023-07-13T08:13:03;24.20;99.90
8214;DHT22;4148;47.974;7.824;2023-07-13T08:15:34;24.00;99.90
8214;DHT22;4148;47.974;7.824;2023-07-13T08:18:02;23.90;99.90
8214;DHT22;4148;47.974;7.824;2023-07-13T08:20:30;24.10;99.90
8214;DHT22;4148;47.974;7.824;2023-07-13T08:22:58;24.30;99.90
8214;DHT22;4148;47.974;7.824;2023-07-13T08:25:27;24.20;99.90
8214;DHT22;4148;47.974;7.824;2023-07-13T08:27:55;24.20;99.90
8214;DHT22;4148;47.974;7.824;2023-07-13T08:30:23;24.40;99.90
8214;DHT22;4148;47.974;7.824;2023-07-13T08:32:51;24.90;99.90
8214;DHT22;4148;47.974;7.824;2023-07-13T08:35:20;25.00;99.90
8214;DHT22;4148;47.974;7.824;2023-07-13T08:37:48;24.80;99.90
8214;DHT22;4148;47.974;7.824;2023-07-13T08:40:17;24.90;99.90
8214;DHT22;4148;47.974;7.824;2023-07-13T08:42:54;25.10;99.90
8214;DHT22;4148;47.974;7.824;2023-07-13T08:45:24;25.30;99.90
8214;DHT22;4148;47.974;7.824;2023-07-13T08:47:58;25.20;99.90
8214;DHT22;4148;47.974;7.824;2023-07-13T08:50:32;24.90;99.90
8214;DHT22;4148;47.974;7.824;2023-07-13T08:53:22;24.70;99.90
8214;DHT22;4148;47.974;7.824;2023-07-13T08:55:58;25.00;99.90
8214;DHT22;4148;47.974;7.824;2023-07-13T08:58:29;25.40;99.90
8214;DHT22;4148;47.974;7.824;2023-07-13T09:01:02;25.70;99.90
8214;DHT22;4148;47.974;7.824;2023-07-13T09:03:40;26.10;99.90
8214;DHT22;4148;47.974;7.824;2023-07-13T09:06:10;26.30;99.90
8214;DHT22;4148;47.974;7.824;2023-07-13T09:08:48;26.50;99.90
8214;DHT22;4148;47.974;7.824;2023-07-13T09:11:46;26.60;99.90
8214;DHT22;4148;47.974;7.824;2023-07-13T09:14:31;26.90;99.90
8214;DHT22;4148;47.974;7.824;2023-07-13T09:17:03;26.80;99.90
8214;DHT22;4148;47.974;7.824;2023-07-13T09:19:33;26.80;99.90
8214;DHT22;4148;47.974;7.824;2023-07-13T09:22:04;27.00;99.90
8214;DHT22;4148;47.974;7.824;2023-07-13T09:24:38;27.20;99.90
8214;DHT22;4148;47.974;7.824;2023-07-13T09:27:14;27.30;99.90
8214;DHT22;4148;47.974;7.824;2023-07-13T09:29:49;27.30;99.90
8214;DHT22;4148;47.974;7.824;2023-07-13T09:32:21;27.00;99.90
8214;DHT22;4148;47.974;7.824;2023-07-13T09:34:52;26.80;99.90
8214;DHT22;4148;47.974;7.824;2023-07-13T09:37:22;27.00;99.90
8214;DHT22;4148;47.974;7.824;2023-07-13T09:39:52;27.30;99.90
8214;DHT22;4148;47.974;7.824;2023-07-13T09:42:22;27.40;99.90
8214;DHT22;4148;47.974;7.824;2023-07-13T09:44:56;27.80;99.90
8214;DHT22;4148;47.974;7.824;2023-07-13T09:47:25;28.00;99.90
8214;DHT22;4148;47.974;7.824;2023-07-13T09:49:55;28.20;99.90
8214;DHT22;4148;47.974;7.824;2023-07-13T09:52:41;28.70;99.90
8214;DHT22;4148;47.974;7.824;2023-07-13T09:55:28;28.90;99.90
8214;DHT22;4148;47.974;7.824;2023-07-13T09:57:57;28.90;99.90
8214;DHT22;4148;47.974;7.824;2023-07-13T10:00:28;28.60;99.90
8214;DHT22;4148;47.974;7.824;2023-07-13T10:03:05;28.30;99.90
8214;DHT22;4148;47.974;7.824;2023-07-13T10:05:38;28.00;99.90
8214;DHT22;4148;47.974;7.824;2023-07-13T10:08:11;28.00;99.90
8214;DHT22;4148;47.974;7.824;2023-07-13T10:10:42;27.90;99.90
8214;DHT22;4148;47.974;7.824;2023-07-13T10:13:29;27.90;99.90
8214;DHT22;4148;47.974;7.824;2023-07-13T10:16:00;27.90;99.90
8214;DHT22;4148;47.974;7.824;2023-07-13T10:18:33;28.00;99.90
8214;DHT22;4148;47.974;7.824;2023-07-13T10:21:11;28.30;99.90
8214;DHT22;4148;47.974;7.824;2023-07-13T10:23:49;28.50;99.90
8214;DHT22;4148;47.974;7.824;2023-07-13T10:26:22;28.40;99.90
8214;DHT22;4148;47.974;7.824;2023-07-13T10:28:53;28.90;99.90
8214;DHT22;4148;47.974;7.824;2023-07-13T10:31:23;29.10;99.90
8214;DHT22;4148;47.974;7.824;2023-07-13T10:33:52;29.50;99.90
8214;DHT22;4148;47.974;7.824;2023-07-13T10:36:32;29.80;99.90
8214;DHT22;4148;47.974;7.824;2023-07-13T10:39:02;30.10;99.90
8214;DHT22;4148;47.974;7.824;2023-07-13T10:41:34;30.50;99.90
8214;DHT22;4148;47.974;7.824;2023-07-13T10:44:04;30.70;99.90
8214;DHT22;4148;47.974;7.824;2023-07-13T10:46:35;30.80;99.90
8214;DHT22;4148;47.974;7.824;2023-07-13T10:49:05;30.30;99.90
8214;DHT22;4148;47.974;7.824;2023-07-13T10:51:35;30.60;99.90
8214;DHT22;4148;47.974;7.824;2023-07-13T10:54:22;30.60;99.90
8214;DHT22;4148;47.974;7.824;2023-07-13T10:57:10;31.20;99.90
8214;DHT22;4148;47.974;7.824;2023-07-13T10:59:45;31.10;99.90
8214;DHT22;4148;47.974;7.824;2023-07-13T11:02:23;31.10;99.90
8214;DHT22;4148;47.974;7.824;2023-07-13T11:04:54;31.20;99.90
8214;DHT22;4148;47.974;7.824;2023-07-13T11:07:23;30.80;99.90
8214;DHT22;4148;47.974;7.824;2023-07-13T11:09:53;30.10;99.90
8214;DHT22;4148;47.974;7.824;2023-07-13T11:12:50;29.10;99.90
8214;DHT22;4148;47.974;7.824;2023-07-13T11:15:31;28.40;99.90
8214;DHT22;4148;47.974;7.824;2023-07-13T11:18:04;28.10;99.90
8214;DHT22;4148;47.974;7.824;2023-07-13T11:20:40;28.60;99.90
8214;DHT22;4148;47.974;7.824;2023-07-13T11:23:28;29.10;99.90
8214;DHT22;4148;47.974;7.824;2023-07-13T11:25:56;28.80;99.90
8214;DHT22;4148;47.974;7.824;2023-07-13T11:28:29;28.10;99.90
8214;DHT22;4148;47.974;7.824;2023-07-13T11:31:13;27.90;99.90
8214;DHT22;4148;47.974;7.824;2023-07-13T11:34:02;28.40;99.90
8214;DHT22;4148;47.974;7.824;2023-07-13T11:36:36;28.80;99.90
8214;DHT22;4148;47.974;7.824;2023-07-13T11:39:16;29.10;99.90
8214;DHT22;4148;47.974;7.824;2023-07-13T11:41:50;29.30;99.90
8214;DHT22;4148;47.974;7.824;2023-07-13T11:44:20;29.20;99.90
8214;DHT22;4148;47.974;7.824;2023-07-13T11:46:49;29.40;99.90
8214;DHT22;4148;47.974;7.824;2023-07-13T11:49:25;29.50;99.90
8214;DHT22;4148;47.974;7.824;2023-07-13T11:51:54;29.50;99.90
8214;DHT22;4148;47.974;7.824;2023-07-13T11:54:25;29.30;99.90
8214;DHT22;4148;47.974;7.824;2023-07-13T11:56:55;29.40;99.90
8214;DHT22;4148;47.974;7.824;2023-07-13T11:59:24;29.30;99.90
8214;DHT22;4148;47.974;7.824;2023-07-13T12:01:54;29.10;99.90
8214;DHT22;4148;47.974;7.824;2023-07-13T12:04:27;29.10;99.90
8214;DHT22;4148;47.974;7.824;2023-07-13T12:06:57;29.00;99.90
8214;DHT22;4148;47.974;7.824;2023-07-13T12:09:27;29.00;99.90
8214;DHT22;4148;47.974;7.824;2023-07-13T12:11:57;28.90;99.90
8214;DHT22;4148;47.974;7.824;2023-07-13T12:14:26;29.00;99.90
8214;DHT22;4148;47.974;7.824;2023-07-13T12:16:55;28.80;99.90
8214;DHT22;4148;47.974;7.824;2023-07-13T12:19:27;28.80;99.90
8214;DHT22;4148;47.974;7.824;2023-07-13T12:21:57;28.80;99.90
8214;DHT22;4148;47.974;7.824;2023-07-13T12:24:26;28.60;99.90
8214;DHT22;4148;47.974;7.824;2023-07-13T12:26:58;28.40;99.90
8214;DHT22;4148;47.974;7.824;2023-07-13T12:29:27;28.50;99.90
8214;DHT22;4148;47.974;7.824;2023-07-13T12:31:55;28.50;99.90
8214;DHT22;4148;47.974;7.824;2023-07-13T12:34:26;28.50;99.90
8214;DHT22;4148;47.974;7.824;2023-07-13T12:36:58;28.70;99.90
8214;DHT22;4148;47.974;7.824;2023-07-13T12:39:37;28.50;99.90
8214;DHT22;4148;47.974;7.824;2023-07-13T12:42:21;28.40;99.90
8214;DHT22;4148;47.974;7.824;2023-07-13T12:44:59;28.20;99.90
8214;DHT22;4148;47.974;7.824;2023-07-13T12:47:28;28.00;99.90
8214;DHT22;4148;47.974;7.824;2023-07-13T12:49:59;27.80;99.90
8214;DHT22;4148;47.974;7.824;2023-07-13T12:52:34;27.80;99.90
8214;DHT22;4148;47.974;7.824;2023-07-13T12:55:05;27.70;99.90
8214;DHT22;4148;47.974;7.824;2023-07-13T12:57:40;27.50;99.90
8214;DHT22;4148;47.974;7.824;2023-07-13T13:00:22;27.60;99.90
8214;DHT22;4148;47.974;7.824;2023-07-13T13:02:53;27.70;99.90
8214;DHT22;4148;47.974;7.824;2023-07-13T13:05:35;27.70;99.90
8214;DHT22;4148;47.974;7.824;2023-07-13T13:08:04;27.70;99.90
8214;DHT22;4148;47.974;7.824;2023-07-13T13:10:32;27.80;99.90
8214;DHT22;4148;47.974;7.824;2023-07-13T13:13:02;27.80;99.90
8214;DHT22;4148;47.974;7.824;2023-07-13T13:15:30;27.70;99.90
8214;DHT22;4148;47.974;7.824;2023-07-13T13:17:59;27.50;99.90
8214;DHT22;4148;47.974;7.824;2023-07-13T13:20:27;27.30;99.90
8214;DHT22;4148;47.974;7.824;2023-07-13T13:22:56;27.10;99.90
8214;DHT22;4148;47.974;7.824;2023-07-13T13:25:25;27.10;99.90
8214;DHT22;4148;47.974;7.824;2023-07-13T13:27:53;26.90;99.90
8214;DHT22;4148;47.974;7.824;2023-07-13T13:30:21;26.80;99.90
8214;DHT22;4148;47.974;7.824;2023-07-13T13:32:49;26.80;99.90
8214;DHT22;4148;47.974;7.824;2023-07-13T13:35:20;26.80;99.90
8214;DHT22;4148;47.974;7.824;2023-07-13T13:37:48;26.90;99.90
8214;DHT22;4148;47.974;7.824;2023-07-13T13:40:21;26.90;99.90
8214;DHT22;4148;47.974;7.824;2023-07-13T13:42:50;27.00;99.90
8214;DHT22;4148;47.974;7.824;2023-07-13T13:45:19;26.90;99.90
8214;DHT22;4148;47.974;7.824;2023-07-13T13:47:47;26.90;99.90
8214;DHT22;4148;47.974;7.824;2023-07-13T13:50:17;26.70;99.90
8214;DHT22;4148;47.974;7.824;2023-07-13T13:52:46;26.60;99.90
8214;DHT22;4148;47.974;7.824;2023-07-13T13:55:15;26.50;99.90
8214;DHT22;4148;47.974;7.824;2023-07-13T13:57:45;26.30;99.90
8214;DHT22;4148;47.974;7.824;2023-07-13T14:00:15;26.40;99.90
8214;DHT22;4148;47.974;7.824;2023-07-13T14:02:46;26.40;99.90
8214;DHT22;4148;47.974;7.824;2023-07-13T14:05:22;26.50;99.90
8214;DHT22;4148;47.974;7.824;2023-07-13T14:07:50;26.60;99.90
8214;DHT22;4148;47.974;7.824;2023-07-13T14:10:20;26.70;99.90
8214;DHT22;4148;47.974;7.824;2023-07-13T14:12:51;26.60;99.90
8214;DHT22;4148;47.974;7.824;2023-07-13T14:15:22;26.50;99.90
8214;DHT22;4148;47.974;7.824;2023-07-13T14:17:50;26.50;99.90
8214;DHT22;4148;47.974;7.824;2023-07-13T14:20:20;26.40;99.90
8214;DHT22;4148;47.974;7.824;2023-07-13T14:22:49;26.30;99.90
8214;DHT22;4148;47.974;7.824;2023-07-13T14:25:18;26.10;99.90
8214;DHT22;4148;47.974;7.824;2023-07-13T14:27:51;26.00;99.90
8214;DHT22;4148;47.974;7.824;2023-07-13T14:30:22;26.00;99.90
8214;DHT22;4148;47.974;7.824;2023-07-13T14:32:51;26.00;99.90
8214;DHT22;4148;47.974;7.824;2023-07-13T14:35:21;25.90;99.90
8214;DHT22;4148;47.974;7.824;2023-07-13T14:37:50;25.90;99.90
8214;DHT22;4148;47.974;7.824;2023-07-13T14:40:21;25.80;99.90
8214;DHT22;4148;47.974;7.824;2023-07-13T14:42:52;25.80;99.90
8214;DHT22;4148;47.974;7.824;2023-07-13T14:45:20;25.80;99.90
8214;DHT22;4148;47.974;7.824;2023-07-13T14:47:48;25.80;99.90
8214;DHT22;4148;47.974;7.824;2023-07-13T14:50:19;25.80;99.90
8214;DHT22;4148;47.974;7.824;2023-07-13T14:52:48;25.70;99.90
8214;DHT22;4148;47.974;7.824;2023-07-13T14:55:17;25.70;99.90
8214;DHT22;4148;47.974;7.824;2023-07-13T14:57:46;25.70;99.90
8214;DHT22;4148;47.974;7.824;2023-07-13T15:00:18;25.70;99.90
8214;DHT22;4148;47.974;7.824;2023-07-13T15:02:50;25.70;99.90
8214;DHT22;4148;47.974;7.824;2023-07-13T15:05:21;25.70;99.90
8214;DHT22;4148;47.974;7.824;2023-07-13T15:07:51;25.70;99.90
8214;DHT22;4148;47.974;7.824;2023-07-13T15:10:21;25.70;99.90
8214;DHT22;4148;47.974;7.824;2023-07-13T15:12:51;25.70;99.90
8214;DHT22;4148;47.974;7.824;2023-07-13T15:15:20;25.80;99.90
8214;DHT22;4148;47.974;7.824;2023-07-13T15:17:49;25.80;99.90
8214;DHT22;4148;47.974;7.824;2023-07-13T15:20:20;26.00;99.90
8214;DHT22;4148;47.974;7.824;2023-07-13T15:22:49;26.10;99.90
8214;DHT22;4148;47.974;7.824;2023-07-13T15:25:19;26.10;99.90
8214;DHT22;4148;47.974;7.824;2023-07-13T15:27:47;26.20;99.90
8214;DHT22;4148;47.974;7.824;2023-07-13T15:30:15;26.20;99.90
8214;DHT22;4148;47.974;7.824;2023-07-13T15:32:46;26.10;99.90
8214;DHT22;4148;47.974;7.824;2023-07-13T15:35:17;26.10;99.90
8214;DHT22;4148;47.974;7.824;2023-07-13T15:37:45;26.00;99.90
8214;DHT22;4148;47.974;7.824;2023-07-13T15:40:14;25.90;99.90
8214;DHT22;4148;47.974;7.824;2023-07-13T15:42:43;25.70;99.90
8214;DHT22;4148;47.974;7.824;2023-07-13T15:45:17;25.60;99.90
8214;DHT22;4148;47.974;7.824;2023-07-13T15:47:47;25.60;99.90
8214;DHT22;4148;47.974;7.824;2023-07-13T15:50:16;25.60;99.90
8214;DHT22;4148;47.974;7.824;2023-07-13T15:52:52;25.70;99.90
8214;DHT22;4148;47.974;7.824;2023-07-13T15:55:21;25.60;99.90
8214;DHT22;4148;47.974;7.824;2023-07-13T15:57:51;25.60;99.90
8214;DHT22;4148;47.974;7.824;2023-07-13T16:00:22;25.60;99.90
8214;DHT22;4148;47.974;7.824;2023-07-13T16:02:52;25.60;99.90
8214;DHT22;4148;47.974;7.824;2023-07-13T16:05:25;25.60;99.90
8214;DHT22;4148;47.974;7.824;2023-07-13T16:07:53;25.70;99.90
8214;DHT22;4148;47.974;7.824;2023-07-13T16:10:27;25.70;99.90
8214;DHT22;4148;47.974;7.824;2023-07-13T16:12:57;25.70;99.90
8214;DHT22;4148;47.974;7.824;2023-07-13T16:15:25;25.60;99.90
8214;DHT22;4148;47.974;7.824;2023-07-13T16:17:54;25.60;99.90
8214;DHT22;4148;47.974;7.824;2023-07-13T16:20:25;25.50;99.90
8214;DHT22;4148;47.974;7.824;2023-07-13T16:22:55;25.50;99.90
8214;DHT22;4148;47.974;7.824;2023-07-13T16:25:24;25.50;99.90